Time;durP1;ratioP1;P1;durP2;ratioP2;P2;SDS_P1;SDS_P2;PMS_P1;PMS_P2;Temp;Humidity;BMP_temperature;BMP_pressure;BME280_temperature;BME280_humidity;BME280_pressure;Samples;Min_cycle;Max_cycle;Signal;HPM_P1;HPM_P2
2023/08/29 00:02:13;;;;;;;4.20;3.30;;;16.60;99.90;;;;;;5016079;28;20225;-71
2023/08/29 00:04:39;;;;;;;3.90;2.70;;;16.50;99.90;;;;;;5032877;28;20179;-72
2023/08/29 00:07:05;;;;;;;3.20;2.90;;;16.30;99.90;;;;;;5033902;28;20457;-71
2023/08/29 00:09:31;;;;;;;2.93;2.73;;;16.10;99.90;;;;;;5033571;28;20492;-71
2023/08/29 00:11:57;;;;;;;3.97;3.67;;;16.00;99.90;;;;;;5033953;28;20532;-71
2023/08/29 00:14:22;;;;;;;3.40;3.20;;;16.10;99.90;;;;;;4993107;28;20180;-71
2023/08/29 00:16:48;;;;;;;4.13;3.13;;;16.30;99.90;;;;;;4994200;28;20182;-71
2023/08/29 00:19:14;;;;;;;3.07;2.87;;;16.40;99.90;;;;;;4994209;28;20520;-72
2023/08/29 00:21:41;;;;;;;3.30;3.00;;;16.50;99.90;;;;;;5006254;28;20195;-72
2023/08/29 00:24:08;;;;;;;3.77;2.90;;;16.40;99.90;;;;;;5015655;28;20944;-72
2023/08/29 00:26:33;;;;;;;4.00;3.07;;;16.50;99.90;;;;;;5013665;28;20488;-72
2023/08/29 00:28:59;;;;;;;4.30;3.07;;;16.50;99.90;;;;;;5013945;28;20423;-71
2023/08/29 00:31:24;;;;;;;3.47;3.17;;;16.40;99.90;;;;;;5013398;28;20194;-72
2023/08/29 00:33:51;;;;;;;3.80;3.40;;;16.50;99.90;;;;;;5028686;28;20253;-72
2023/08/29 00:36:17;;;;;;;2.90;2.70;;;16.40;99.90;;;;;;5033246;28;20613;-72
2023/08/29 00:38:42;;;;;;;2.80;2.60;;;16.40;99.90;;;;;;5033235;28;20417;-71
2023/08/29 00:41:10;;;;;;;3.80;2.90;;;16.30;99.90;;;;;;5032995;28;20173;-71
2023/08/29 00:43:36;;;;;;;3.60;3.30;;;16.50;99.90;;;;;;5020507;28;20174;-72
2023/08/29 00:46:03;;;;;;;3.23;2.63;;;16.60;99.90;;;;;;5013464;28;20925;-71
2023/08/29 00:48:32;;;;;;;3.77;3.47;;;16.50;99.90;;;;;;5013395;28;20423;-72
2023/08/29 00:50:58;;;;;;;3.33;3.13;;;16.30;99.90;;;;;;5013297;28;20928;-71
2023/08/29 00:53:27;;;;;;;3.40;3.10;;;16.40;99.90;;;;;;5024319;28;20527;-71
2023/08/29 00:55:53;;;;;;;3.73;3.43;;;16.20;99.90;;;;;;5032738;28;20461;-72
2023/08/29 00:58:19;;;;;;;2.97;2.77;;;16.40;99.90;;;;;;5033361;28;20827;-72
2023/08/29 01:00:45;;;;;;;2.60;2.40;;;16.50;99.90;;;;;;5023850;28;20177;-71
2023/08/29 01:03:11;;;;;;;4.33;3.00;;;16.50;99.90;;;;;;5022521;28;20195;-71
2023/08/29 01:05:37;;;;;;;3.10;2.80;;;16.60;99.90;;;;;;5033328;28;20412;-72
2023/08/29 01:08:03;;;;;;;3.83;2.67;;;16.60;99.90;;;;;;5033190;28;20257;-72
2023/08/29 01:10:54;;;;;;;3.53;3.23;;;16.60;99.90;;;;;;5033189;28;20570;-73
2023/08/29 01:13:48;;;;;;;2.93;2.70;;;16.50;99.90;;;;;;5022477;28;20424;-72
2023/08/29 01:16:18;;;;;;;3.57;3.27;;;16.40;99.90;;;;;;5013226;28;20434;-71
2023/08/29 01:18:46;;;;;;;3.30;3.00;;;16.30;99.90;;;;;;5013018;28;20409;-71
2023/08/29 01:21:30;;;;;;;4.17;3.57;;;16.40;99.90;;;;;;5013619;28;20471;-71
2023/08/29 01:24:08;;;;;;;4.33;3.60;;;16.40;99.90;;;;;;5028239;28;20402;-72
2023/08/29 01:26:34;;;;;;;3.50;3.20;;;16.50;99.90;;;;;;5033036;28;20434;-72
2023/08/29 01:29:02;;;;;;;3.27;3.00;;;16.40;99.90;;;;;;5033090;28;20956;-72
2023/08/29 01:31:29;;;;;;;3.30;3.00;;;16.50;99.90;;;;;;5017727;28;20513;-72
2023/08/29 01:33:57;;;;;;;4.40;4.00;;;16.50;99.90;;;;;;5027961;28;20508;-71
2023/08/29 01:36:27;;;;;;;5.27;2.80;;;16.50;99.90;;;;;;5032685;28;20427;-72
2023/08/29 01:38:53;;;;;;;3.40;3.20;;;16.40;99.90;;;;;;5031413;28;20420;-71
2023/08/29 01:41:18;;;;;;;2.87;2.67;;;16.50;99.90;;;;;;5031232;28;20980;-72
2023/08/29 01:43:44;;;;;;;3.33;2.97;;;16.50;99.90;;;;;;5019368;28;20180;-71
2023/08/29 01:46:09;;;;;;;4.77;4.37;;;16.50;99.90;;;;;;5012787;28;20213;-71
2023/08/29 01:48:36;;;;;;;2.93;2.63;;;16.30;99.90;;;;;;5012840;28;20306;-72
2023/08/29 01:51:02;;;;;;;3.27;2.97;;;16.40;99.90;;;;;;5012326;28;20657;-72
2023/08/29 01:53:28;;;;;;;4.23;3.83;;;16.50;99.90;;;;;;5026160;28;20435;-71
2023/08/29 01:55:55;;;;;;;3.63;3.33;;;16.50;99.90;;;;;;5032243;28;20411;-71
2023/08/29 01:58:21;;;;;;;3.57;3.27;;;16.60;99.90;;;;;;5032552;28;20187;-72
2023/08/29 02:00:47;;;;;;;4.50;4.10;;;16.60;99.90;;;;;;5024267;28;20415;-72
2023/08/29 02:03:13;;;;;;;4.07;3.40;;;16.40;99.90;;;;;;5024886;28;20803;-71
2023/08/29 02:05:41;;;;;;;4.20;3.73;;;16.40;99.90;;;;;;5036000;28;20491;-70
2023/08/29 02:08:06;;;;;;;3.90;3.40;;;16.40;99.90;;;;;;5036497;28;20301;-70
2023/08/29 02:10:32;;;;;;;3.33;3.03;;;16.40;99.90;;;;;;5035667;28;20440;-70
2023/08/29 02:12:58;;;;;;;3.40;3.20;;;16.40;99.90;;;;;;5029377;28;20190;-70
2023/08/29 02:15:23;;;;;;;3.83;3.50;;;16.40;99.90;;;;;;5016661;28;20220;-70
2023/08/29 02:17:49;;;;;;;4.23;3.83;;;16.50;99.90;;;;;;5016058;28;20177;-70
2023/08/29 02:20:14;;;;;;;3.50;3.20;;;16.40;99.90;;;;;;5016535;28;20223;-71
2023/08/29 02:22:40;;;;;;;4.97;4.57;;;16.50;99.90;;;;;;5031798;28;20205;-70
2023/08/29 02:25:06;;;;;;;3.60;3.30;;;16.30;99.90;;;;;;5016162;28;20182;-70
2023/08/29 02:27:35;;;;;;;3.80;2.90;;;16.40;99.90;;;;;;5015832;28;20676;-69
2023/08/29 02:30:00;;;;;;;3.70;3.40;;;16.30;99.90;;;;;;5015773;28;20224;-72
2023/08/29 02:32:26;;;;;;;3.30;3.00;;;16.40;99.90;;;;;;5017884;28;20478;-70
2023/08/29 02:34:52;;;;;;;3.60;3.40;;;16.50;99.90;;;;;;5035847;28;20563;-70
2023/08/29 02:37:17;;;;;;;3.40;3.10;;;16.60;99.90;;;;;;5035523;28;20410;-70
2023/08/29 02:39:43;;;;;;;4.23;3.83;;;16.70;99.90;;;;;;5035232;28;20580;-71
2023/08/29 02:42:08;;;;;;;4.60;4.20;;;16.30;99.90;;;;;;5035183;28;20253;-70
2023/08/29 02:44:34;;;;;;;4.33;3.70;;;16.40;99.90;;;;;;5016078;28;20187;-70
2023/08/29 02:46:59;;;;;;;4.00;3.70;;;16.40;99.90;;;;;;5015359;28;20209;-70
2023/08/29 02:49:25;;;;;;;3.40;3.10;;;16.40;99.90;;;;;;5015419;28;20171;-71
2023/08/29 02:51:50;;;;;;;3.20;2.90;;;16.50;99.90;;;;;;5015579;28;20199;-70
2023/08/29 02:54:18;;;;;;;4.03;3.47;;;16.60;99.90;;;;;;5031920;28;20273;-70
2023/08/29 02:56:43;;;;;;;3.90;3.60;;;16.70;99.90;;;;;;5034976;28;20177;-71
2023/08/29 02:59:09;;;;;;;4.40;3.90;;;16.60;99.90;;;;;;5034939;28;20423;-71
2023/08/29 03:01:34;;;;;;;5.10;4.60;;;16.70;99.90;;;;;;5019323;28;20241;-71
2023/08/29 03:04:00;;;;;;;4.63;4.23;;;16.60;99.90;;;;;;5029387;28;20174;-71
2023/08/29 03:06:25;;;;;;;7.17;3.90;;;16.60;99.90;;;;;;5035669;28;20195;-71
2023/08/29 03:08:51;;;;;;;3.67;3.33;;;16.60;99.90;;;;;;5035636;28;20170;-71
2023/08/29 03:11:16;;;;;;;4.30;3.70;;;16.60;99.90;;;;;;5034467;28;20299;-71
2023/08/29 03:13:42;;;;;;;4.63;3.30;;;16.70;99.90;;;;;;5022421;28;20186;-71
2023/08/29 03:16:14;;;;;;;3.70;3.40;;;16.70;99.90;;;;;;5014023;28;20170;-71
2023/08/29 03:18:40;;;;;;;5.03;4.53;;;16.80;99.90;;;;;;5014927;28;20184;-71
2023/08/29 03:21:07;;;;;;;3.53;3.20;;;16.60;99.90;;;;;;5015448;28;20410;-71
2023/08/29 03:23:33;;;;;;;5.90;3.43;;;16.70;99.90;;;;;;5024777;28;20671;-71
2023/08/29 03:26:06;;;;;;;3.63;3.33;;;16.40;99.90;;;;;;5034539;28;20405;-71
2023/08/29 03:28:32;;;;;;;3.60;3.23;;;16.40;99.90;;;;;;5034729;28;20412;-71
2023/08/29 03:31:13;;;;;;;5.40;4.50;;;16.50;99.90;;;;;;5023752;28;20413;-71
2023/08/29 03:33:39;;;;;;;4.87;4.47;;;16.50;99.90;;;;;;5024332;28;20937;-71
2023/08/29 03:36:05;;;;;;;5.17;4.10;;;16.50;99.90;;;;;;5033017;28;20413;-71
2023/08/29 03:38:34;;;;;;;3.80;3.50;;;16.70;99.90;;;;;;5034196;28;20416;-71
2023/08/29 03:40:59;;;;;;;4.33;4.03;;;16.70;99.90;;;;;;5034232;28;20844;-71
2023/08/29 03:43:28;;;;;;;5.47;5.07;;;16.70;99.90;;;;;;5020764;28;20516;-71
2023/08/29 03:45:59;;;;;;;5.20;4.70;;;16.70;99.90;;;;;;5014851;28;20175;-71
2023/08/29 03:48:25;;;;;;;5.90;4.53;;;16.50;99.90;;;;;;5014841;28;20442;-71
2023/08/29 03:50:50;;;;;;;7.20;4.23;;;16.60;99.90;;;;;;5014591;28;20456;-71
2023/08/29 03:53:16;;;;;;;5.07;4.60;;;16.50;99.90;;;;;;5024153;28;20202;-72
2023/08/29 03:55:42;;;;;;;4.93;4.43;;;16.60;99.90;;;;;;5033615;28;20553;-71
2023/08/29 03:58:07;;;;;;;5.50;5.00;;;16.50;99.90;;;;;;5034285;28;20231;-71
2023/08/29 04:00:33;;;;;;;5.00;4.60;;;16.40;99.90;;;;;;5026374;28;20258;-72
2023/08/29 04:03:05;;;;;;;5.60;5.13;;;16.40;99.90;;;;;;5019142;28;20201;-71
2023/08/29 04:05:30;;;;;;;7.13;6.60;;;16.40;99.90;;;;;;5034359;28;20284;-72
2023/08/29 04:07:56;;;;;;;4.90;4.50;;;16.40;99.90;;;;;;5033867;28;20933;-72
2023/08/29 04:10:21;;;;;;;5.97;5.37;;;16.40;99.90;;;;;;5033712;28;20680;-72
2023/08/29 04:12:47;;;;;;;3.97;3.67;;;16.40;99.90;;;;;;5030300;28;20192;-71
2023/08/29 04:15:12;;;;;;;6.93;4.90;;;16.50;99.90;;;;;;5014171;28;20179;-71
2023/08/29 04:17:41;;;;;;;4.73;4.30;;;16.50;99.90;;;;;;5013868;28;20188;-72
2023/08/29 04:20:10;;;;;;;5.30;4.03;;;16.50;99.90;;;;;;5020486;28;20183;-72
2023/08/29 04:22:35;;;;;;;5.10;4.53;;;16.50;99.90;;;;;;5032882;28;20433;-72
2023/08/29 04:25:04;;;;;;;4.60;4.20;;;16.50;99.90;;;;;;5013364;28;20408;-72
2023/08/29 04:27:30;;;;;;;7.57;4.80;;;16.60;99.90;;;;;;5013637;28;20194;-72
2023/08/29 04:29:55;;;;;;;7.33;6.60;;;16.50;99.90;;;;;;5013963;28;20419;-71
2023/08/29 04:32:21;;;;;;;8.77;7.97;;;16.30;99.90;;;;;;5013555;28;20205;-72
2023/08/29 04:34:46;;;;;;;7.77;7.13;;;16.30;99.90;;;;;;5032732;28;20185;-71
2023/08/29 04:37:12;;;;;;;8.90;8.17;;;16.20;99.90;;;;;;5033711;28;20174;-72
2023/08/29 04:39:38;;;;;;;8.80;7.27;;;16.10;99.90;;;;;;5033458;28;20662;-72
2023/08/29 04:42:03;;;;;;;7.67;7.07;;;16.00;99.90;;;;;;5031906;28;20685;-72
2023/08/29 04:44:30;;;;;;;9.00;8.20;;;16.00;99.90;;;;;;5016560;28;20637;-72
2023/08/29 04:46:55;;;;;;;8.67;7.87;;;16.10;99.90;;;;;;5013411;28;20233;-71
2023/08/29 04:49:21;;;;;;;6.83;6.27;;;16.10;99.90;;;;;;5015180;28;20427;-72
2023/08/29 04:51:47;;;;;;;7.87;7.27;;;16.30;99.90;;;;;;5013632;28;20206;-71
2023/08/29 04:54:13;;;;;;;8.73;7.83;;;16.30;99.90;;;;;;5027579;28;20763;-72
2023/08/29 04:56:38;;;;;;;8.60;7.80;;;16.20;99.90;;;;;;5031795;28;20229;-72
2023/08/29 04:59:04;;;;;;;8.40;7.70;;;16.30;99.90;;;;;;5012035;28;20187;-71
2023/08/29 05:01:30;;;;;;;9.07;8.37;;;16.40;99.90;;;;;;5013571;28;20751;-71
2023/08/29 05:03:55;;;;;;;9.43;8.63;;;16.50;99.90;;;;;;5013195;28;20207;-72
2023/08/29 05:06:21;;;;;;;10.13;9.13;;;16.40;99.90;;;;;;5013196;28;20194;-71
2023/08/29 05:08:46;;;;;;;9.90;9.00;;;16.20;99.90;;;;;;5013151;28;20172;-71
2023/08/29 05:11:12;;;;;;;9.27;8.37;;;16.10;99.90;;;;;;5023037;28;20210;-72
2023/08/29 05:13:38;;;;;;;8.80;8.00;;;16.20;99.90;;;;;;5033031;28;20163;-72
2023/08/29 05:16:03;;;;;;;9.97;9.07;;;16.30;99.90;;;;;;5032968;28;20404;-72
2023/08/29 05:18:29;;;;;;;10.20;9.30;;;16.30;99.90;;;;;;5032808;28;20174;-71
2023/08/29 05:20:56;;;;;;;11.17;9.93;;;16.50;99.90;;;;;;5032663;28;20182;-70
2023/08/29 05:23:22;;;;;;;12.50;11.40;;;16.30;99.90;;;;;;5032696;28;20565;-71
2023/08/29 05:25:47;;;;;;;11.00;10.07;;;16.30;99.90;;;;;;5032453;28;20405;-71
2023/08/29 05:28:13;;;;;;;9.83;8.90;;;16.30;99.90;;;;;;5032794;28;20448;-71
2023/08/29 05:30:38;;;;;;;11.03;10.07;;;16.30;99.90;;;;;;5029333;28;20201;-71
2023/08/29 05:33:04;;;;;;;11.20;10.10;;;16.40;99.90;;;;;;5032521;28;20211;-71
2023/08/29 05:35:30;;;;;;;9.53;8.63;;;16.50;99.90;;;;;;5033375;28;20250;-71
2023/08/29 05:37:55;;;;;;;11.10;9.90;;;16.70;99.90;;;;;;5037314;28;20666;-72
2023/08/29 05:40:21;;;;;;;9.60;8.80;;;16.60;99.90;;;;;;5033552;28;20409;-71
2023/08/29 05:42:46;;;;;;;9.53;8.83;;;16.50;99.90;;;;;;5016997;28;20191;-70
2023/08/29 05:45:12;;;;;;;9.90;9.10;;;16.70;99.90;;;;;;5016590;28;20217;-70
2023/08/29 05:47:38;;;;;;;9.77;8.77;;;16.80;99.90;;;;;;5015231;28;20277;-71
2023/08/29 05:50:04;;;;;;;8.67;7.93;;;16.90;99.90;;;;;;5019472;28;20164;-71
2023/08/29 05:52:29;;;;;;;11.00;10.13;;;16.90;99.90;;;;;;5035644;28;20188;-72
2023/08/29 05:54:55;;;;;;;9.90;9.10;;;16.80;99.90;;;;;;5015994;28;20517;-71
2023/08/29 05:57:21;;;;;;;10.57;9.50;;;16.80;99.90;;;;;;5016749;28;20203;-70
2023/08/29 05:59:47;;;;;;;10.53;9.43;;;16.90;99.90;;;;;;5016976;28;20448;-71
2023/08/29 06:02:12;;;;;;;10.37;9.43;;;17.00;99.90;;;;;;5034085;28;20262;-71
2023/08/29 06:04:38;;;;;;;11.20;10.20;;;17.10;99.90;;;;;;5036439;28;20299;-71
2023/08/29 06:07:05;;;;;;;9.63;8.70;;;16.90;99.90;;;;;;5036350;28;20629;-71
2023/08/29 06:09:33;;;;;;;11.07;10.17;;;17.00;99.90;;;;;;5036103;28;20447;-70
2023/08/29 06:11:59;;;;;;;10.43;9.43;;;17.00;99.90;;;;;;5020037;28;20432;-70
2023/08/29 06:14:24;;;;;;;11.70;10.70;;;16.70;99.90;;;;;;5016721;28;20409;-71
2023/08/29 06:16:50;;;;;;;10.60;9.50;;;16.80;99.90;;;;;;5016381;28;20849;-71
2023/08/29 06:19:16;;;;;;;12.00;10.83;;;16.80;99.90;;;;;;5024186;28;20177;-71
2023/08/29 06:21:42;;;;;;;10.10;9.10;;;16.90;99.90;;;;;;5035638;28;20430;-70
2023/08/29 06:24:07;;;;;;;11.50;10.30;;;17.00;99.90;;;;;;5036010;28;20639;-71
2023/08/29 06:26:33;;;;;;;10.17;9.30;;;16.90;99.90;;;;;;5035608;28;20201;-71
2023/08/29 06:28:58;;;;;;;10.20;9.40;;;16.80;99.90;;;;;;5027265;28;20173;-71
2023/08/29 06:31:24;;;;;;;9.33;8.40;;;16.40;99.90;;;;;;5018981;28;20223;-72
2023/08/29 06:33:49;;;;;;;13.60;12.23;;;16.60;99.90;;;;;;5029949;28;20257;-70
2023/08/29 06:36:15;;;;;;;12.73;10.57;;;16.70;99.90;;;;;;5035681;28;20526;-71
2023/08/29 06:38:42;;;;;;;10.80;9.83;;;16.60;99.90;;;;;;5031848;28;20616;-69
2023/08/29 06:41:08;;;;;;;11.60;10.70;;;16.50;99.90;;;;;;5015965;28;20400;-70
2023/08/29 06:43:34;;;;;;;9.77;8.97;;;16.40;99.90;;;;;;5015599;28;20427;-70
2023/08/29 06:46:00;;;;;;;11.50;10.50;;;16.50;99.90;;;;;;5015578;28;20409;-70
2023/08/29 06:48:25;;;;;;;11.40;10.20;;;16.60;99.90;;;;;;5016072;28;20185;-70
2023/08/29 06:50:51;;;;;;;11.07;10.07;;;16.70;99.90;;;;;;5035385;28;20609;-70
2023/08/29 06:53:16;;;;;;;11.60;10.50;;;16.60;99.90;;;;;;5035105;28;20669;-70
2023/08/29 06:55:42;;;;;;;10.90;9.80;;;16.40;99.90;;;;;;5034795;28;20179;-70
2023/08/29 06:58:07;;;;;;;10.40;9.40;;;16.20;99.90;;;;;;5034915;28;20555;-69
2023/08/29 07:00:34;;;;;;;11.03;10.03;;;16.30;99.90;;;;;;5016513;28;20677;-70
2023/08/29 07:03:00;;;;;;;12.50;11.50;;;16.50;99.90;;;;;;5014179;28;20687;-70
2023/08/29 07:05:26;;;;;;;10.80;9.90;;;16.40;99.90;;;;;;5014439;28;20427;-70
2023/08/29 07:07:52;;;;;;;12.40;11.30;;;16.30;99.90;;;;;;5015383;28;20548;-70
2023/08/29 07:10:17;;;;;;;11.40;10.43;;;16.50;99.90;;;;;;5030890;28;20407;-70
2023/08/29 07:12:43;;;;;;;11.93;11.00;;;16.50;99.90;;;;;;5034590;28;20691;-70
2023/08/29 07:15:10;;;;;;;12.17;11.03;;;16.50;99.90;;;;;;5034603;28;20510;-70
2023/08/29 07:17:35;;;;;;;10.40;9.60;;;16.60;99.90;;;;;;5033443;28;20199;-70
2023/08/29 07:20:08;;;;;;;12.20;10.40;;;16.60;99.90;;;;;;5021001;28;20422;-70
2023/08/29 07:22:36;;;;;;;9.63;8.83;;;16.50;99.90;;;;;;5015029;28;20198;-70
2023/08/29 07:25:03;;;;;;;10.60;9.80;;;16.60;99.90;;;;;;5014570;28;20444;-70
2023/08/29 07:27:30;;;;;;;11.23;10.27;;;16.70;99.90;;;;;;5014581;28;20450;-70
2023/08/29 07:29:55;;;;;;;9.60;8.87;;;16.90;99.90;;;;;;5026999;28;20419;-70
2023/08/29 07:32:21;;;;;;;10.70;9.80;;;16.80;99.90;;;;;;5014625;28;20440;-70
2023/08/29 07:34:47;;;;;;;9.50;8.60;;;16.70;99.90;;;;;;5014885;28;20305;-70
2023/08/29 07:37:13;;;;;;;9.77;9.07;;;16.40;99.90;;;;;;5014399;28;20438;-70
2023/08/29 07:39:38;;;;;;;9.90;9.10;;;16.20;99.90;;;;;;5024394;28;20612;-70
2023/08/29 07:42:04;;;;;;;9.40;8.70;;;16.20;99.90;;;;;;5034023;28;20196;-70
2023/08/29 07:44:30;;;;;;;10.87;9.87;;;16.10;99.90;;;;;;5034155;28;20180;-71
2023/08/29 07:46:56;;;;;;;9.67;8.80;;;16.10;99.90;;;;;;5034301;28;20198;-70
2023/08/29 07:49:22;;;;;;;9.23;8.53;;;16.10;99.90;;;;;;5026370;28;20174;-71
2023/08/29 07:51:52;;;;;;;10.30;9.40;;;16.20;99.90;;;;;;5014269;28;20426;-70
2023/08/29 07:54:18;;;;;;;10.17;9.30;;;16.20;99.90;;;;;;5013019;28;20180;-70
2023/08/29 07:56:43;;;;;;;10.63;9.67;;;16.20;99.90;;;;;;5016687;28;20437;-70
2023/08/29 07:59:09;;;;;;;10.00;9.00;;;16.30;99.90;;;;;;5019642;28;20420;-70
2023/08/29 08:01:35;;;;;;;11.27;10.27;;;16.20;99.90;;;;;;5019704;28;20197;-71
2023/08/29 08:04:01;;;;;;;11.33;10.43;;;16.20;99.90;;;;;;5022745;28;20175;-70
2023/08/29 08:06:27;;;;;;;11.30;10.20;;;16.40;99.90;;;;;;5033441;28;20449;-70
2023/08/29 08:08:53;;;;;;;9.83;8.50;;;16.30;99.90;;;;;;5038374;28;20536;-70
2023/08/29 08:11:19;;;;;;;10.13;9.10;;;16.20;99.90;;;;;;5052647;28;20167;-70
2023/08/29 08:13:44;;;;;;;10.90;9.90;;;16.30;99.90;;;;;;5054007;28;20474;-71
2023/08/29 08:16:10;;;;;;;11.97;10.90;;;16.20;99.90;;;;;;5054725;28;20176;-70
2023/08/29 08:18:35;;;;;;;10.10;9.20;;;16.00;99.90;;;;;;5054192;28;20177;-70
2023/08/29 08:21:01;;;;;;;11.23;10.13;;;16.00;99.90;;;;;;5035126;28;20178;-70
2023/08/29 08:23:26;;;;;;;12.87;10.90;;;16.00;99.90;;;;;;5034582;28;20194;-71
2023/08/29 08:25:53;;;;;;;12.30;11.40;;;16.10;99.90;;;;;;5049507;28;20193;-71
2023/08/29 08:28:19;;;;;;;11.67;10.57;;;16.40;99.90;;;;;;5054530;28;20212;-71
2023/08/29 08:30:44;;;;;;;10.67;9.77;;;16.60;99.90;;;;;;5024791;28;20443;-71
2023/08/29 08:33:10;;;;;;;12.60;11.60;;;16.70;99.90;;;;;;5014121;28;20217;-70
2023/08/29 08:35:35;;;;;;;10.73;9.63;;;16.80;99.90;;;;;;5013490;28;20234;-71
2023/08/29 08:38:01;;;;;;;11.03;10.00;;;16.80;99.90;;;;;;5012268;28;20173;-70
2023/08/29 08:40:28;;;;;;;11.80;10.80;;;16.60;99.90;;;;;;5029570;28;20187;-71
2023/08/29 08:42:54;;;;;;;12.47;11.47;;;16.30;99.90;;;;;;5033825;28;20429;-70
2023/08/29 08:45:22;;;;;;;16.20;14.70;;;16.40;99.90;;;;;;5033155;28;20411;-70
2023/08/29 08:47:47;;;;;;;11.83;10.83;;;16.50;99.90;;;;;;5033262;28;20200;-71
2023/08/29 08:50:13;;;;;;;11.70;10.80;;;16.40;99.90;;;;;;5019433;28;20417;-70
2023/08/29 08:52:41;;;;;;;12.03;10.93;;;16.30;99.90;;;;;;5013661;28;20200;-71
2023/08/29 08:55:07;;;;;;;14.03;12.83;;;15.90;99.90;;;;;;5013556;28;20423;-71
2023/08/29 08:57:34;;;;;;;15.20;13.93;;;15.90;99.90;;;;;;5013591;28;20498;-72
2023/08/29 08:59:59;;;;;;;12.20;11.10;;;16.00;99.90;;;;;;5025563;28;20407;-70
2023/08/29 09:02:26;;;;;;;12.53;11.33;;;16.30;99.90;;;;;;5013751;28;20433;-70
2023/08/29 09:04:53;;;;;;;14.20;12.97;;;16.50;99.90;;;;;;5013315;28;20315;-70
2023/08/29 09:07:18;;;;;;;13.50;12.50;;;16.70;99.90;;;;;;5013028;28;20478;-71
2023/08/29 09:10:04;;;;;;;13.40;12.40;;;17.20;99.90;;;;;;5022696;28;20424;-70
2023/08/29 09:12:30;;;;;;;12.83;11.80;;;17.20;99.90;;;;;;5036520;28;20675;-71
2023/08/29 09:14:56;;;;;;;11.40;10.50;;;17.30;99.90;;;;;;5037197;28;20416;-71
2023/08/29 09:17:23;;;;;;;11.70;10.57;;;17.40;99.90;;;;;;5037289;28;20179;-70
2023/08/29 09:19:48;;;;;;;11.90;10.97;;;17.30;99.90;;;;;;5026507;28;20244;-69
2023/08/29 09:22:14;;;;;;;12.47;11.47;;;17.50;99.90;;;;;;5016838;28;20437;-69
2023/08/29 09:24:40;;;;;;;11.00;10.00;;;17.70;99.90;;;;;;5017006;28;20182;-70
2023/08/29 09:27:11;;;;;;;13.37;12.27;;;17.30;99.90;;;;;;5016864;28;20198;-70
2023/08/29 09:29:36;;;;;;;12.03;11.13;;;16.90;99.90;;;;;;5025022;28;20295;-69
2023/08/29 09:32:15;;;;;;;13.03;11.90;;;16.90;99.90;;;;;;5019857;28;20549;-70
2023/08/29 09:34:41;;;;;;;12.10;11.10;;;16.80;99.90;;;;;;5016595;28;20165;-70
2023/08/29 09:37:07;;;;;;;12.13;10.90;;;16.80;99.90;;;;;;5015972;28;20415;-69
2023/08/29 09:39:33;;;;;;;9.43;8.63;;;16.90;99.90;;;;;;5022194;28;20424;-70
2023/08/29 09:42:06;;;;;;;12.93;11.73;;;16.80;99.90;;;;;;5035736;28;20815;-70
2023/08/29 09:44:39;;;;;;;11.40;10.50;;;16.70;99.90;;;;;;5036308;28;20484;-69
2023/08/29 09:47:06;;;;;;;11.57;10.67;;;16.90;99.90;;;;;;5032961;28;20558;-69
2023/08/29 09:49:42;;;;;;;11.03;10.20;;;17.00;99.90;;;;;;5017507;28;20420;-69
2023/08/29 09:52:13;;;;;;;11.60;10.40;;;16.80;99.90;;;;;;5019115;28;20497;-69
2023/08/29 09:54:45;;;;;;;12.27;11.07;;;17.10;99.90;;;;;;5016944;28;20380;-70
2023/08/29 09:57:12;;;;;;;14.30;13.13;;;17.00;99.90;;;;;;5015798;28;20529;-69
2023/08/29 09:59:39;;;;;;;15.00;13.60;;;17.20;99.90;;;;;;5024247;28;20411;-70
2023/08/29 10:02:08;;;;;;;11.50;10.60;;;17.10;99.90;;;;;;5017544;28;20777;-71
2023/08/29 10:04:38;;;;;;;10.20;9.30;;;16.90;99.90;;;;;;5016727;28;20416;-70
2023/08/29 10:07:05;;;;;;;12.03;11.03;;;16.90;99.90;;;;;;5016240;28;20480;-70
2023/08/29 10:09:32;;;;;;;11.70;10.80;;;17.20;99.90;;;;;;5023860;28;20440;-70
2023/08/29 10:11:58;;;;;;;11.37;10.57;;;17.30;99.90;;;;;;5035883;28;20433;-70
2023/08/29 10:14:25;;;;;;;14.70;13.47;;;17.40;99.90;;;;;;5035936;28;20413;-72
2023/08/29 10:16:51;;;;;;;11.40;10.50;;;17.20;99.90;;;;;;5034099;28;20405;-72
2023/08/29 10:19:19;;;;;;;12.40;11.30;;;16.90;99.90;;;;;;5031041;28;20426;-71
2023/08/29 10:21:45;;;;;;;14.90;13.70;;;17.10;99.90;;;;;;5015478;28;20437;-71
2023/08/29 10:24:12;;;;;;;13.50;12.30;;;17.20;99.90;;;;;;5016233;28;20418;-70
2023/08/29 10:26:38;;;;;;;12.17;11.27;;;17.20;99.90;;;;;;5015592;28;20451;-71
2023/08/29 10:29:05;;;;;;;13.20;12.10;;;17.40;99.90;;;;;;5029436;28;20414;-71
2023/08/29 10:31:35;;;;;;;11.67;10.67;;;17.60;99.90;;;;;;5016123;28;20459;-71
2023/08/29 10:34:03;;;;;;;10.50;9.70;;;17.90;99.90;;;;;;5016336;28;20422;-72
2023/08/29 10:36:29;;;;;;;12.80;11.80;;;17.70;99.90;;;;;;5016020;28;20486;-73
2023/08/29 10:38:57;;;;;;;12.03;11.20;;;17.60;99.90;;;;;;5017619;28;20991;-73
2023/08/29 10:41:22;;;;;;;10.83;10.00;;;17.90;99.90;;;;;;5035701;28;20777;-72
2023/08/29 10:43:53;;;;;;;10.30;9.40;;;18.00;99.90;;;;;;5035800;28;20509;-72
2023/08/29 10:46:19;;;;;;;10.13;9.43;;;18.20;99.90;;;;;;5035386;28;20202;-71
2023/08/29 10:48:46;;;;;;;11.00;10.13;;;18.20;99.90;;;;;;5035532;28;20836;-71
2023/08/29 10:51:15;;;;;;;12.57;11.57;;;18.20;99.90;;;;;;5015594;28;20489;-71
2023/08/29 10:53:52;;;;;;;11.57;10.67;;;18.20;99.90;;;;;;5015994;28;20407;-72
2023/08/29 10:56:20;;;;;;;12.73;11.60;;;18.20;99.90;;;;;;5016024;28;20399;-71
2023/08/29 10:58:49;;;;;;;11.50;10.70;;;18.30;99.90;;;;;;5015732;28;20418;-71
2023/08/29 11:01:24;;;;;;;12.60;11.27;;;18.30;99.90;;;;;;5009984;28;20476;-72
2023/08/29 11:03:50;;;;;;;12.50;11.43;;;18.50;99.90;;;;;;5016088;28;20801;-72
2023/08/29 11:06:21;;;;;;;12.47;11.37;;;18.30;99.90;;;;;;5015120;28;20913;-71
2023/08/29 11:08:47;;;;;;;11.67;10.67;;;18.20;99.90;;;;;;5015840;28;20786;-71
2023/08/29 11:11:17;;;;;;;13.73;12.73;;;18.10;99.90;;;;;;5034822;28;20430;-71
2023/08/29 11:14:03;;;;;;;11.13;10.33;;;17.60;99.90;;;;;;5035015;28;20171;-71
2023/08/29 11:16:35;;;;;;;15.63;14.40;;;17.80;99.90;;;;;;5035151;28;20443;-72
2023/08/29 11:19:14;;;;;;;12.80;11.90;;;17.90;99.90;;;;;;5032882;28;20405;-71
2023/08/29 11:21:42;;;;;;;15.90;14.73;;;17.70;99.90;;;;;;5014707;28;20434;-72
2023/08/29 11:24:10;;;;;;;14.57;13.47;;;17.60;99.90;;;;;;5014989;28;20414;-72
2023/08/29 11:26:38;;;;;;;13.70;12.60;;;17.50;99.90;;;;;;5014414;28;20446;-72
2023/08/29 11:29:08;;;;;;;14.13;13.03;;;17.50;99.90;;;;;;5016934;28;20425;-72
2023/08/29 11:31:41;;;;;;;13.63;12.63;;;17.80;99.90;;;;;;5021575;28;20464;-73
2023/08/29 11:34:17;;;;;;;14.00;13.00;;;18.40;99.90;;;;;;5014080;28;20396;-72
2023/08/29 11:36:47;;;;;;;14.50;13.30;;;18.60;99.90;;;;;;5015080;28;20460;-72
2023/08/29 11:39:14;;;;;;;12.60;11.60;;;19.00;99.90;;;;;;5017635;28;20409;-72
2023/08/29 11:41:42;;;;;;;11.67;10.87;;;19.40;99.90;;;;;;5034304;28;20445;-71
2023/08/29 11:44:08;;;;;;;13.37;12.37;;;19.70;99.90;;;;;;5034628;28;20483;-71
2023/08/29 11:46:34;;;;;;;12.90;11.60;;;19.60;99.90;;;;;;5034326;28;20944;-71
2023/08/29 11:49:00;;;;;;;12.73;11.70;;;19.50;99.90;;;;;;5032899;28;20210;-71
2023/08/29 11:51:26;;;;;;;10.47;9.77;;;19.30;99.90;;;;;;5014690;28;20197;-71
2023/08/29 11:53:55;;;;;;;10.03;9.20;;;19.60;99.90;;;;;;5015808;28;20415;-71
2023/08/29 11:56:21;;;;;;;11.17;10.27;;;20.00;99.90;;;;;;5018459;28;20902;-71
2023/08/29 11:58:49;;;;;;;12.57;11.67;;;20.00;99.90;;;;;;5014469;28;20462;-70
2023/08/29 12:01:15;;;;;;;20.93;19.00;;;20.00;99.90;;;;;;5034012;28;20493;-71
2023/08/29 12:03:40;;;;;;;12.67;11.53;;;20.00;99.90;;;;;;5015890;28;20949;-71
2023/08/29 12:06:10;;;;;;;17.13;15.83;;;20.00;99.90;;;;;;5014192;28;20557;-71
2023/08/29 12:08:46;;;;;;;19.60;18.00;;;19.70;99.90;;;;;;5014070;28;20299;-71
2023/08/29 12:11:16;;;;;;;14.63;13.43;;;19.60;99.90;;;;;;5031855;28;20823;-71
2023/08/29 12:14:00;;;;;;;15.60;14.37;;;19.40;99.90;;;;;;5033510;28;20450;-71
2023/08/29 12:16:26;;;;;;;14.43;13.23;;;18.90;99.90;;;;;;5033670;28;20889;-72
2023/08/29 12:19:05;;;;;;;11.20;10.40;;;18.50;99.90;;;;;;5033298;28;20437;-72
2023/08/29 12:21:30;;;;;;;22.40;18.17;;;18.10;99.90;;;;;;5013687;28;20823;-71
2023/08/29 12:24:09;;;;;;;38.90;29.47;;;18.00;99.90;;;;;;5013766;28;20894;-70
2023/08/29 12:26:35;;;;;;;30.70;21.23;;;18.00;99.90;;;;;;5013617;28;20192;-71
2023/08/29 12:29:01;;;;;;;14.93;13.53;;;18.40;99.90;;;;;;5014372;28;20403;-72
2023/08/29 12:31:27;;;;;;;13.57;12.47;;;18.30;99.90;;;;;;5033102;28;20488;-72
2023/08/29 12:33:53;;;;;;;11.70;10.80;;;18.20;99.90;;;;;;5015862;28;20182;-72
2023/08/29 12:36:18;;;;;;;12.00;11.00;;;18.10;99.90;;;;;;5013962;28;20195;-72
2023/08/29 12:38:44;;;;;;;15.07;13.77;;;17.90;99.90;;;;;;5013572;28;20414;-71